Time;durP1;ratioP1;P1;durP2;ratioP2;P2;SDS_P1;SDS_P2;PMS_P1;PMS_P2;Temp;Humidity;BMP_temperature;BMP_pressure;BME280_temperature;BME280_humidity;BME280_pressure;Samples;Min_cycle;Max_cycle;Signal;HPM_P1;HPM_P2
2024/03/22 00:01:49;;;;;;;48.53;18.83;;;;;;;9.20;100.00;102168.56;5092928;28;20382;-75
2024/03/22 00:04:15;;;;;;;42.03;17.85;;;;;;;9.13;100.00;102160.09;5093043;28;20078;-76
2024/03/22 00:06:42;;;;;;;46.42;18.58;;;;;;;9.05;100.00;102157.94;5092884;28;20088;-77
2024/03/22 00:09:08;;;;;;;47.03;17.63;;;;;;;9.03;100.00;102153.66;5074831;28;20035;-77
2024/03/22 00:11:33;;;;;;;45.47;19.00;;;;;;;8.97;100.00;102157.56;5074747;28;20496;-77
2024/03/22 00:13:59;;;;;;;46.22;18.58;;;;;;;8.92;100.00;102149.03;5092625;28;20062;-76
2024/03/22 00:16:24;;;;;;;47.38;19.17;;;;;;;8.88;100.00;102153.66;5092732;28;20059;-77
2024/03/22 00:18:50;;;;;;;48.83;18.50;;;;;;;8.86;100.00;102149.44;5092801;28;20091;-77
2024/03/22 00:21:16;;;;;;;51.70;19.33;;;;;;;8.84;100.00;102141.56;5092953;28;20024;-76
2024/03/22 00:23:42;;;;;;;51.95;20.15;;;;;;;8.80;100.00;102127.63;5092708;28;20044;-77
2024/03/22 00:26:07;;;;;;;54.97;18.95;;;;;;;8.77;100.00;102129.63;5092504;28;20028;-76
2024/03/22 00:28:33;;;;;;;52.72;19.52;;;;;;;8.74;100.00;102135.13;5092396;28;20441;-77
2024/03/22 00:30:58;;;;;;;57.58;21.80;;;;;;;8.73;100.00;102136.06;5074440;28;20111;-76
2024/03/22 00:33:24;;;;;;;61.35;21.17;;;;;;;8.68;100.00;102128.38;5092548;28;20128;-76
2024/03/22 00:35:49;;;;;;;61.10;22.17;;;;;;;8.63;100.00;102117.22;5092615;28;20114;-77
2024/03/22 00:38:14;;;;;;;60.30;21.08;;;;;;;8.60;100.00;102123.56;5092469;28;20104;-77
2024/03/22 00:40:40;;;;;;;52.08;20.40;;;;;;;8.59;100.00;102110.38;5092446;28;20036;-77
2024/03/22 00:43:06;;;;;;;59.70;21.10;;;;;;;8.57;100.00;102109.63;5092602;28;20054;-76
2024/03/22 00:45:32;;;;;;;68.45;23.85;;;;;;;8.53;100.00;102111.63;5092325;28;20035;-77
2024/03/22 00:47:57;;;;;;;58.70;22.00;;;;;;;8.51;100.00;102099.38;5092511;28;20372;-77
2024/03/22 00:50:22;;;;;;;64.97;22.88;;;;;;;8.49;100.00;102094.19;5092366;28;20039;-77
2024/03/22 00:52:50;;;;;;;63.78;22.77;;;;;;;8.48;100.00;102087.19;5074054;28;20063;-77
2024/03/22 00:55:15;;;;;;;66.38;23.27;;;;;;;8.46;100.00;102095.25;5092099;28;20495;-77
2024/03/22 00:57:41;;;;;;;70.07;22.75;;;;;;;8.44;100.00;102091.81;5092260;28;20054;-77
2024/03/22 01:00:07;;;;;;;61.38;21.73;;;;;;;8.43;100.00;102095.41;5073874;28;20068;-77
2024/03/22 01:02:32;;;;;;;65.00;22.00;;;;;;;8.43;100.00;102098.06;5092209;28;20104;-77
2024/03/22 01:04:58;;;;;;;60.90;21.20;;;;;;;8.44;100.00;102098.94;5092105;28;20448;-76
2024/03/22 01:07:23;;;;;;;68.05;22.45;;;;;;;8.44;100.00;102102.41;5091814;28;20173;-77
2024/03/22 01:09:49;;;;;;;62.78;22.05;;;;;;;8.46;100.00;102111.16;5091904;28;20483;-77
2024/03/22 01:12:14;;;;;;;52.65;20.38;;;;;;;8.47;100.00;102107.53;5073671;28;20439;-79
2024/03/22 01:14:39;;;;;;;49.28;18.90;;;;;;;8.48;100.00;102108.41;5073554;28;20052;-76
2024/03/22 01:17:04;;;;;;;48.33;19.63;;;;;;;8.47;100.00;102112.84;5073593;28;20498;-77
2024/03/22 01:19:30;;;;;;;51.15;18.42;;;;;;;8.45;100.00;102101.47;5073543;28;20020;-77
2024/03/22 01:21:55;;;;;;;47.63;20.40;;;;;;;8.43;100.00;102100.72;5091596;28;20066;-76
2024/03/22 01:24:20;;;;;;;42.20;16.55;;;;;;;8.42;100.00;102092.81;5091619;28;20021;-76
2024/03/22 01:26:46;;;;;;;42.90;18.83;;;;;;;8.39;100.00;102077.09;5072878;28;20028;-75
2024/03/22 01:29:14;;;;;;;28.42;14.90;;;;;;;8.34;100.00;102087.97;5056366;28;20074;-76
2024/03/22 01:31:39;;;;;;;34.05;15.18;;;;;;;8.30;100.00;102078.53;5091737;28;20089;-77
2024/03/22 01:34:05;;;;;;;36.25;13.63;;;;;;;8.28;100.00;102075.09;5091801;28;20032;-76
2024/03/22 01:36:30;;;;;;;31.95;14.15;;;;;;;8.29;100.00;102079.47;5091877;28;20025;-77
2024/03/22 01:38:55;;;;;;;26.70;13.43;;;;;;;8.28;100.00;102080.41;5091806;28;20031;-76
2024/03/22 01:41:21;;;;;;;29.02;12.27;;;;;;;8.28;100.00;102073.31;5091745;28;20461;-77
2024/03/22 01:43:46;;;;;;;27.20;13.30;;;;;;;8.29;100.00;102082.97;5091511;28;20333;-76
2024/03/22 01:46:12;;;;;;;22.75;13.85;;;;;;;8.29;100.00;102077.66;5073387;28;20040;-76
2024/03/22 01:48:37;;;;;;;26.27;13.27;;;;;;;8.29;100.00;102069.72;5073559;28;20028;-76
2024/03/22 01:51:05;;;;;;;28.42;14.20;;;;;;;8.27;100.00;102078.69;5091472;28;20115;-76
2024/03/22 01:53:30;;;;;;;25.88;13.07;;;;;;;8.29;100.00;102095.38;5073365;28;20034;-77
2024/03/22 01:55:56;;;;;;;27.20;13.25;;;;;;;8.31;100.00;102093.47;5091707;28;20023;-76
2024/03/22 01:58:22;;;;;;;27.40;14.07;;;;;;;8.32;100.00;102084.59;5091331;28;20074;-77
2024/03/22 02:00:49;;;;;;;30.52;13.48;;;;;;;8.32;100.00;102087.25;5091696;28;20067;-75
2024/03/22 02:03:14;;;;;;;34.15;13.57;;;;;;;8.32;100.00;102081.94;5072810;28;20036;-76
2024/03/22 02:05:40;;;;;;;33.95;13.50;;;;;;;8.30;100.00;102081.19;5072615;28;20131;-76
2024/03/22 02:08:05;;;;;;;31.83;12.63;;;;;;;8.29;100.00;102064.41;5091308;28;20114;-76
2024/03/22 02:10:31;;;;;;;26.77;11.73;;;;;;;8.29;100.00;102068.88;5090848;28;20027;-76
2024/03/22 02:12:56;;;;;;;33.55;11.90;;;;;;;8.29;100.00;102058.25;5090884;28;20190;-76
2024/03/22 02:15:22;;;;;;;29.95;11.98;;;;;;;8.28;100.00;102061.84;5090781;28;20056;-75
2024/03/22 02:17:47;;;;;;;30.88;12.32;;;;;;;8.28;100.00;102046.81;5072620;28;20032;-76
2024/03/22 02:20:13;;;;;;;31.40;12.38;;;;;;;8.27;100.00;102046.88;5072669;28;20020;-76
2024/03/22 02:22:38;;;;;;;33.75;13.23;;;;;;;8.27;100.00;102038.91;5072914;28;20024;-76
2024/03/22 02:25:04;;;;;;;39.00;13.05;;;;;;;8.25;100.00;102035.53;5091414;28;20357;-76
2024/03/22 02:27:29;;;;;;;28.17;11.98;;;;;;;8.26;100.00;102029.28;5090876;28;20440;-76
2024/03/22 02:29:55;;;;;;;28.95;13.07;;;;;;;8.25;100.00;102020.44;5090970;28;20039;-76
2024/03/22 02:32:20;;;;;;;33.88;13.15;;;;;;;8.25;100.00;102023.09;5090659;28;20196;-76
2024/03/22 02:34:45;;;;;;;36.63;11.55;;;;;;;8.26;100.00;102021.31;5072654;28;20375;-76
2024/03/22 02:37:11;;;;;;;33.58;11.23;;;;;;;8.26;100.00;102018.69;5071969;28;20032;-75
2024/03/22 02:39:36;;;;;;;29.52;11.80;;;;;;;8.25;100.00;102007.19;5090436;28;20020;-76
2024/03/22 02:42:01;;;;;;;31.60;12.23;;;;;;;8.22;100.00;102015.34;5091040;28;20386;-76
2024/03/22 02:44:27;;;;;;;24.75;10.82;;;;;;;8.18;100.00;102003.25;5090677;28;20410;-78
2024/03/22 02:46:52;;;;;;;31.55;11.65;;;;;;;8.16;100.00;102005.13;5090803;28;20436;-76
2024/03/22 02:49:17;;;;;;;26.38;10.73;;;;;;;8.15;100.00;101998.13;5090762;28;20034;-75
2024/03/22 02:51:43;;;;;;;31.17;11.27;;;;;;;8.15;100.00;101994.59;5090253;28;20122;-76
2024/03/22 02:54:08;;;;;;;31.33;10.50;;;;;;;8.12;100.00;101979.75;5072208;28;20059;-76
2024/03/22 02:56:34;;;;;;;31.23;10.25;;;;;;;8.12;100.00;101983.25;5090255;28;20111;-76
2024/03/22 02:58:59;;;;;;;32.70;11.40;;;;;;;8.09;100.00;101970.19;5090323;28;20111;-76
2024/03/22 03:01:24;;;;;;;25.70;9.93;;;;;;;8.07;100.00;101964.13;5090466;28;20094;-76
2024/03/22 03:03:50;;;;;;;30.58;9.85;;;;;;;8.06;100.00;101957.13;5090240;28;20464;-74
2024/03/22 03:06:16;;;;;;;30.10;9.07;;;;;;;8.07;100.00;101966.78;5090245;28;20082;-74
2024/03/22 03:08:42;;;;;;;34.15;9.05;;;;;;;8.10;100.00;101961.28;5090380;28;20052;-75
2024/03/22 03:11:07;;;;;;;26.33;8.68;;;;;;;8.10;100.00;101953.31;5090378;28;20131;-76
2024/03/22 03:13:33;;;;;;;27.17;8.68;;;;;;;8.14;100.00;101956.66;5090240;28;20040;-77
2024/03/22 03:15:58;;;;;;;22.50;8.73;;;;;;;8.16;100.00;101949.44;5090533;28;20479;-76
2024/03/22 03:18:24;;;;;;;27.42;8.85;;;;;;;8.19;100.00;101951.06;5090286;28;20031;-75
2024/03/22 03:20:49;;;;;;;33.00;10.70;;;;;;;8.21;100.00;101954.47;5090207;28;20093;-76
2024/03/22 03:23:15;;;;;;;25.63;10.07;;;;;;;8.21;100.00;101946.50;5090425;28;20031;-76
2024/03/22 03:25:40;;;;;;;34.75;11.15;;;;;;;8.20;100.00;101937.72;5089898;28;20032;-76
2024/03/22 03:28:07;;;;;;;40.50;11.13;;;;;;;8.21;100.00;101930.59;5089955;28;20344;-76
2024/03/22 03:30:33;;;;;;;39.00;10.80;;;;;;;8.19;100.00;101920.09;5090070;28;20082;-76
2024/03/22 03:32:58;;;;;;;38.08;11.70;;;;;;;8.18;100.00;101918.41;5071684;28;20452;-75
2024/03/22 03:35:25;;;;;;;28.83;9.50;;;;;;;8.19;100.00;101909.47;5071630;28;20493;-76
2024/03/22 03:37:51;;;;;;;32.50;11.75;;;;;;;8.19;100.00;101912.13;5071911;28;20369;-76
2024/03/22 03:40:16;;;;;;;28.02;12.10;;;;;;;8.20;100.00;101911.19;5090027;28;20059;-76
2024/03/22 03:42:41;;;;;;;33.65;11.57;;;;;;;8.23;100.00;101902.19;5090108;28;20101;-76
2024/03/22 03:45:07;;;;;;;41.75;12.25;;;;;;;8.23;100.00;101900.38;5089703;28;20416;-76
2024/03/22 03:47:33;;;;;;;36.95;12.05;;;;;;;8.24;100.00;101902.09;5089840;28;20051;-75
2024/03/22 03:49:58;;;;;;;35.25;12.05;;;;;;;8.26;100.00;101902.00;5092110;28;20396;-75
2024/03/22 03:52:24;;;;;;;33.95;11.68;;;;;;;8.26;100.00;101902.00;5093269;28;20036;-75
2024/03/22 03:54:49;;;;;;;37.22;11.65;;;;;;;8.30;100.00;101898.22;5075256;28;20031;-75
2024/03/22 03:57:15;;;;;;;34.25;11.50;;;;;;;8.30;100.00;101900.88;5074926;28;20028;-75
2024/03/22 03:59:40;;;;;;;25.42;10.73;;;;;;;8.29;100.00;101905.31;5093096;28;20032;-76
2024/03/22 04:02:05;;;;;;;42.63;11.43;;;;;;;8.29;100.00;101907.94;5093518;28;20035;-76
2024/03/22 04:04:31;;;;;;;31.27;9.85;;;;;;;8.27;100.00;101915.16;5093041;28;20070;-75
2024/03/22 04:06:56;;;;;;;30.50;10.30;;;;;;;8.25;100.00;101905.59;5092972;28;20020;-76
2024/03/22 04:09:21;;;;;;;31.00;10.80;;;;;;;8.25;100.00;101897.63;5093059;28;20107;-74
2024/03/22 04:11:47;;;;;;;30.35;9.00;;;;;;;8.22;100.00;101903.97;5092881;28;20090;-76
2024/03/22 04:14:13;;;;;;;36.15;10.30;;;;;;;8.22;100.00;101905.78;5074492;28;20075;-75
2024/03/22 04:16:38;;;;;;;35.25;10.00;;;;;;;8.21;100.00;101904.09;5074707;28;20032;-75
2024/03/22 04:19:03;;;;;;;24.33;8.50;;;;;;;8.20;100.00;101905.91;5092638;28;20092;-74
2024/03/22 04:21:29;;;;;;;26.92;8.63;;;;;;;8.22;100.00;101911.09;5074488;28;20436;-75
2024/03/22 04:23:54;;;;;;;27.35;9.07;;;;;;;8.22;100.00;101914.59;5092500;28;20085;-75
2024/03/22 04:26:20;;;;;;;31.30;8.90;;;;;;;8.23;100.00;101904.84;5092545;28;20032;-75
2024/03/22 04:28:46;;;;;;;28.27;8.73;;;;;;;8.24;100.00;101911.84;5092624;28;20055;-75
2024/03/22 04:31:12;;;;;;;35.83;9.57;;;;;;;8.22;100.00;101906.63;5092395;28;20032;-75
2024/03/22 04:33:38;;;;;;;25.77;7.80;;;;;;;8.21;100.00;101910.25;5092494;28;20146;-75
2024/03/22 04:36:04;;;;;;;32.78;8.82;;;;;;;8.23;100.00;101910.16;5092339;28;20463;-76
2024/03/22 04:38:31;;;;;;;32.95;8.65;;;;;;;8.22;100.00;101911.94;5092231;28;20520;-75
2024/03/22 04:40:57;;;;;;;31.48;8.43;;;;;;;8.21;100.00;101914.69;5092487;28;20024;-75
2024/03/22 04:43:25;;;;;;;30.52;8.85;;;;;;;8.21;100.00;101920.88;5092494;28;20042;-75
2024/03/22 04:45:51;;;;;;;32.63;8.60;;;;;;;8.18;100.00;101914.88;5091867;28;20050;-75
2024/03/22 04:48:18;;;;;;;29.13;9.63;;;;;;;8.18;100.00;101915.75;5092157;28;20100;-75
2024/03/22 04:50:45;;;;;;;31.23;9.35;;;;;;;8.16;100.00;101912.34;5092087;28;20226;-75
2024/03/22 04:53:10;;;;;;;28.70;8.90;;;;;;;8.18;100.00;101912.22;5092199;28;20027;-75
2024/03/22 04:55:36;;;;;;;38.78;10.65;;;;;;;8.16;100.00;101912.34;5092579;28;20399;-75
2024/03/22 04:58:02;;;;;;;32.78;10.02;;;;;;;8.13;100.00;101907.22;5091859;28;20069;-75
2024/03/22 05:00:30;;;;;;;31.13;9.75;;;;;;;8.12;100.00;101908.16;5091015;28;20365;-75
2024/03/22 05:02:55;;;;;;;31.83;10.15;;;;;;;8.08;100.00;101910.16;5091891;28;20039;-75
2024/03/22 05:05:20;;;;;;;36.15;10.63;;;;;;;8.06;100.00;101905.91;5091633;28;20036;-75
2024/03/22 05:07:46;;;;;;;31.15;9.52;;;;;;;8.04;100.00;101906.00;5091680;28;20107;-75
2024/03/22 05:10:12;;;;;;;39.60;10.48;;;;;;;8.04;100.00;101898.03;5091820;28;20375;-75
2024/03/22 05:12:38;;;;;;;30.08;9.93;;;;;;;8.03;100.00;101892.84;5091634;28;20451;-74
2024/03/22 05:15:04;;;;;;;38.17;10.40;;;;;;;8.00;100.00;101893.91;5091336;28;20051;-75
2024/03/22 05:17:31;;;;;;;36.20;10.15;;;;;;;8.04;100.00;101889.25;5091549;28;20023;-75
2024/03/22 05:20:00;;;;;;;36.53;9.73;;;;;;;8.06;100.00;101892.66;5091702;28;20107;-75
2024/03/22 05:22:25;;;;;;;31.52;9.68;;;;;;;8.08;100.00;101890.78;5091723;28;20020;-74
2024/03/22 05:24:50;;;;;;;46.53;9.57;;;;;;;8.08;100.00;101883.66;5091367;28;20035;-75
2024/03/22 05:27:17;;;;;;;26.55;8.40;;;;;;;8.11;100.00;101882.63;5091319;28;20032;-75
2024/03/22 05:29:42;;;;;;;27.05;7.57;;;;;;;8.11;100.00;101882.63;5091451;28;20032;-75
2024/03/22 05:32:08;;;;;;;27.27;8.13;;;;;;;8.08;100.00;101886.31;5091332;28;20024;-75
2024/03/22 05:34:33;;;;;;;29.08;8.15;;;;;;;8.06;100.00;101879.41;5073241;28;20394;-74
2024/03/22 05:36:59;;;;;;;31.65;9.15;;;;;;;8.04;100.00;101874.19;5091435;28;20111;-75
2024/03/22 05:39:24;;;;;;;40.03;8.68;;;;;;;8.00;100.00;101877.13;5072860;28;20029;-74
2024/03/22 05:41:49;;;;;;;29.92;8.02;;;;;;;7.98;100.00;101865.78;5072294;28;20027;-75
2024/03/22 05:44:15;;;;;;;37.53;8.30;;;;;;;7.98;100.00;101860.50;5091118;28;20020;-75
2024/03/22 05:46:40;;;;;;;29.27;8.60;;;;;;;7.97;100.00;101862.28;5091290;28;20531;-74
2024/03/22 05:49:05;;;;;;;35.63;10.07;;;;;;;7.99;100.00;101864.84;5091253;28;20389;-75
2024/03/22 05:51:31;;;;;;;32.65;10.25;;;;;;;8.00;100.00;101864.75;5090997;28;20444;-75
2024/03/22 05:53:57;;;;;;;27.85;9.73;;;;;;;8.02;100.00;101862.00;5072985;28;20090;-75
2024/03/22 05:56:22;;;;;;;28.58;8.85;;;;;;;8.05;100.00;101859.16;5091135;28;20077;-74
2024/03/22 05:58:48;;;;;;;32.15;9.73;;;;;;;8.07;100.00;101852.78;5091375;28;20085;-75
2024/03/22 06:01:13;;;;;;;33.05;9.20;;;;;;;8.10;100.00;101849.94;5072644;28;20058;-75
2024/03/22 06:03:39;;;;;;;35.28;8.80;;;;;;;8.12;100.00;101850.72;5090810;28;20380;-75
2024/03/22 06:06:04;;;;;;;27.60;8.48;;;;;;;8.17;100.00;101853.06;5090914;28;20032;-75
2024/03/22 06:08:34;;;;;;;31.65;9.07;;;;;;;8.21;100.00;101851.94;5090767;28;20028;-75
2024/03/22 06:10:59;;;;;;;26.23;9.32;;;;;;;8.28;100.00;101852.38;5090760;28;20060;-75
2024/03/22 06:13:24;;;;;;;36.92;9.98;;;;;;;8.32;100.00;101845.91;5090508;28;20066;-75
2024/03/22 06:15:50;;;;;;;32.58;9.68;;;;;;;8.37;100.00;101858.88;5072358;28;20024;-74
2024/03/22 06:18:16;;;;;;;33.10;8.48;;;;;;;8.38;100.00;101848.16;5090792;28;20040;-75
2024/03/22 06:20:42;;;;;;;24.83;7.90;;;;;;;8.40;100.00;101851.56;5090959;28;20024;-74
2024/03/22 06:23:08;;;;;;;24.67;7.53;;;;;;;8.41;100.00;101847.13;5090929;28;20460;-75
2024/03/22 06:25:36;;;;;;;30.75;8.98;;;;;;;8.42;100.00;101847.03;5091523;28;20383;-74
2024/03/22 06:28:02;;;;;;;24.80;7.85;;;;;;;8.45;100.00;101841.56;5090616;28;20073;-75
2024/03/22 06:30:28;;;;;;;26.95;8.18;;;;;;;8.49;100.00;101844.84;5090746;28;20032;-75
2024/03/22 06:32:54;;;;;;;28.95;7.65;;;;;;;8.50;100.00;101845.72;5090529;28;20031;-74
2024/03/22 06:35:20;;;;;;;24.42;7.38;;;;;;;8.53;100.00;101845.50;5072689;28;20031;-74
2024/03/22 06:37:45;;;;;;;21.77;7.22;;;;;;;8.56;100.00;101840.84;5090807;28;20028;-74
2024/03/22 06:40:11;;;;;;;24.08;7.47;;;;;;;8.59;100.00;101843.28;5090469;28;20028;-74
2024/03/22 06:42:36;;;;;;;26.13;7.68;;;;;;;8.63;100.00;101834.19;5072179;28;20403;-74
2024/03/22 06:45:03;;;;;;;31.30;7.40;;;;;;;8.66;100.00;101846.41;5090266;28;20064;-75
2024/03/22 06:47:28;;;;;;;37.97;7.20;;;;;;;8.63;100.00;101855.41;5090524;28;20444;-74
2024/03/22 06:49:54;;;;;;;21.25;6.75;;;;;;;8.58;100.00;101848.69;5090297;28;20050;-74
2024/03/22 06:52:19;;;;;;;23.58;6.82;;;;;;;8.55;100.00;101846.25;5071942;28;20034;-74
2024/03/22 06:54:45;;;;;;;24.10;7.18;;;;;;;8.51;100.00;101845.59;5090457;28;20115;-74
2024/03/22 06:57:11;;;;;;;29.02;6.57;;;;;;;8.49;100.00;101849.31;5090254;28;20191;-75
2024/03/22 06:59:36;;;;;;;27.48;6.57;;;;;;;8.49;100.00;101851.97;5090668;28;20077;-74
2024/03/22 07:02:02;;;;;;;22.55;5.75;;;;;;;8.48;100.00;101845.81;5072167;28;20081;-77
2024/03/22 07:04:27;;;;;;;26.40;7.05;;;;;;;8.52;100.00;101851.75;5072238;28;20028;-75
2024/03/22 07:06:53;;;;;;;20.23;7.00;;;;;;;8.50;100.00;101848.38;5090638;28;20035;-75
2024/03/22 07:09:18;;;;;;;23.08;6.25;;;;;;;8.46;100.00;101850.34;5090169;28;20087;-74
2024/03/22 07:11:43;;;;;;;26.45;6.35;;;;;;;8.44;100.00;101853.09;5090111;28;20079;-74
2024/03/22 07:14:09;;;;;;;23.65;7.10;;;;;;;8.44;100.00;101845.16;5090013;28;20361;-74
2024/03/22 07:16:34;;;;;;;22.65;7.13;;;;;;;8.45;100.00;101849.50;5090326;28;20071;-74
2024/03/22 07:18:59;;;;;;;29.00;7.47;;;;;;;8.44;100.00;101842.50;5072015;28;20483;-74
2024/03/22 07:21:25;;;;;;;18.58;6.50;;;;;;;8.47;100.00;101852.06;5071756;28;20032;-74
2024/03/22 07:23:51;;;;;;;29.95;7.18;;;;;;;8.48;100.00;101845.81;5090654;28;20043;-74
2024/03/22 07:26:16;;;;;;;25.77;6.70;;;;;;;8.48;100.00;101840.50;5075888;28;20069;-74
2024/03/22 07:28:42;;;;;;;26.75;6.20;;;;;;;8.51;100.00;101850.03;5093905;28;20024;-74
2024/03/22 07:31:07;;;;;;;22.27;6.72;;;;;;;8.52;100.00;101841.97;5075513;28;20078;-74
2024/03/22 07:33:33;;;;;;;24.30;6.57;;;;;;;8.53;100.00;101834.91;5094454;28;20106;-74
2024/03/22 07:36:02;;;;;;;25.33;6.28;;;;;;;8.54;100.00;101847.19;5094147;28;20417;-74
2024/03/22 07:38:27;;;;;;;22.77;6.68;;;;;;;8.55;100.00;101843.59;5075588;28;20355;-73
2024/03/22 07:40:53;;;;;;;23.20;7.22;;;;;;;8.53;100.00;101840.19;5093800;28;20032;-74
2024/03/22 07:43:18;;;;;;;29.75;6.72;;;;;;;8.47;100.00;101844.09;5093894;28;20070;-74
2024/03/22 07:45:43;;;;;;;24.15;5.97;;;;;;;8.43;100.00;101834.59;5093766;28;20024;-72
2024/03/22 07:48:10;;;;;;;28.10;6.68;;;;;;;8.37;100.00;101843.81;5093836;28;20028;-75
2024/03/22 07:50:35;;;;;;;26.60;7.43;;;;;;;8.33;100.00;101844.09;5043060;28;20106;-74
2024/03/22 07:53:01;;;;;;;25.13;6.05;;;;;;;8.30;100.00;101839.88;5075550;28;20031;-75
2024/03/22 07:55:26;;;;;;;37.35;8.68;;;;;;;8.28;100.00;101847.06;5075468;28;20023;-75
2024/03/22 07:57:51;;;;;;;21.63;6.47;;;;;;;8.26;100.00;101848.97;5075507;28;20364;-73
2024/03/22 08:00:17;;;;;;;22.88;6.57;;;;;;;8.24;100.00;101838.47;5093304;28;20137;-74
2024/03/22 08:02:42;;;;;;;19.92;7.43;;;;;;;8.27;100.00;101846.22;5093475;28;20109;-75
2024/03/22 08:05:08;;;;;;;28.08;7.55;;;;;;;8.30;100.00;101847.84;5093203;28;20028;-73
2024/03/22 08:07:34;;;;;;;25.58;7.35;;;;;;;8.34;100.00;101851.13;5093123;28;20031;-73
2024/03/22 08:10:01;;;;;;;28.45;7.15;;;;;;;8.40;100.00;101848.06;5093268;28;20037;-74
2024/03/22 08:12:27;;;;;;;21.20;6.93;;;;;;;8.44;100.00;101855.75;5093253;28;20032;-74
2024/03/22 08:14:52;;;;;;;22.95;7.60;;;;;;;8.45;100.00;101856.63;5093036;28;20539;-74
2024/03/22 08:17:17;;;;;;;25.13;6.68;;;;;;;8.41;100.00;101845.31;5093017;28;20102;-75
2024/03/22 08:19:44;;;;;;;23.25;7.45;;;;;;;8.41;100.00;101847.97;5092776;28;20040;-74
2024/03/22 08:22:09;;;;;;;28.75;7.38;;;;;;;8.40;100.00;101848.06;5092859;28;20031;-75
2024/03/22 08:24:35;;;;;;;20.38;8.10;;;;;;;8.36;100.00;101850.09;5092748;28;20364;-75
2024/03/22 08:27:00;;;;;;;22.77;7.18;;;;;;;8.37;100.00;101848.28;5092536;28;20474;-75
2024/03/22 08:29:25;;;;;;;28.30;7.80;;;;;;;8.39;100.00;101843.72;5092727;28;20527;-76
2024/03/22 08:31:51;;;;;;;27.25;7.82;;;;;;;8.40;100.00;101848.06;5093000;28;20456;-75
2024/03/22 08:34:19;;;;;;;25.80;8.63;;;;;;;8.40;100.00;101843.59;5073940;28;20059;-75
2024/03/22 08:36:44;;;;;;;27.40;8.18;;;;;;;8.39;100.00;101846.34;5072914;28;20153;-75
2024/03/22 08:39:10;;;;;;;19.48;7.82;;;;;;;8.36;100.00;101842.13;5092172;28;20498;-76
2024/03/22 08:41:37;;;;;;;24.15;8.20;;;;;;;8.34;100.00;101848.47;5092239;28;20035;-76
2024/03/22 08:44:02;;;;;;;21.75;8.52;;;;;;;8.33;100.00;101844.97;5074336;28;20108;-76
2024/03/22 08:46:28;;;;;;;35.28;9.18;;;;;;;8.36;100.00;101850.09;5091560;28;20115;-76
2024/03/22 08:48:53;;;;;;;25.77;9.05;;;;;;;8.37;100.00;101842.97;5057011;28;20097;-76
2024/03/22 08:51:19;;;;;;;25.95;8.70;;;;;;;8.36;100.00;101849.22;5091856;28;20547;-76
2024/03/22 08:53:44;;;;;;;22.67;9.07;;;;;;;8.33;100.00;101839.69;5073608;28;20027;-75
2024/03/22 08:56:10;;;;;;;34.40;9.70;;;;;;;8.29;100.00;101838.16;5091610;28;20056;-74
2024/03/22 08:58:36;;;;;;;29.35;9.00;;;;;;;8.31;100.00;101830.94;5073402;28;20376;-75
2024/03/22 09:01:01;;;;;;;23.73;7.70;;;;;;;8.32;100.00;101834.47;5091924;28;20058;-74
2024/03/22 09:03:26;;;;;;;19.60;8.93;;;;;;;8.32;100.00;101839.78;5091899;28;20455;-74
2024/03/22 09:05:53;;;;;;;28.65;8.95;;;;;;;8.29;100.00;101835.50;5091684;28;20021;-74
2024/03/22 09:08:21;;;;;;;28.88;8.65;;;;;;;8.25;100.00;101834.00;5091603;28;20490;-74
2024/03/22 09:10:46;;;;;;;27.48;9.68;;;;;;;8.20;100.00;101842.25;5091903;28;20037;-75
2024/03/22 09:13:12;;;;;;;28.38;8.93;;;;;;;8.20;100.00;101844.06;5073247;28;20043;-75
2024/03/22 09:15:38;;;;;;;24.92;8.40;;;;;;;8.19;100.00;101839.72;5091231;28;20178;-75
2024/03/22 09:18:04;;;;;;;26.10;9.02;;;;;;;8.20;100.00;101844.06;5091689;28;20068;-74
2024/03/22 09:20:29;;;;;;;36.20;9.15;;;;;;;8.20;100.00;101847.56;5091763;28;20109;-75
2024/03/22 09:22:55;;;;;;;30.38;9.05;;;;;;;8.19;100.00;101845.00;5091631;28;20028;-74
2024/03/22 09:25:20;;;;;;;25.38;8.55;;;;;;;8.16;100.00;101840.75;5073771;28;20032;-74
2024/03/22 09:27:48;;;;;;;30.25;9.93;;;;;;;8.14;100.00;101839.16;5091589;28;20035;-73
2024/03/22 09:30:14;;;;;;;35.80;10.38;;;;;;;8.16;100.00;101837.25;5057230;28;20028;-74
2024/03/22 09:32:40;;;;;;;32.15;9.85;;;;;;;8.13;100.00;101840.94;5091716;28;20036;-74
2024/03/22 09:35:06;;;;;;;23.05;9.88;;;;;;;8.12;100.00;101837.47;5091765;28;20027;-74
2024/03/22 09:37:31;;;;;;;30.80;9.90;;;;;;;8.15;100.00;101839.06;5091820;28;20113;-73
2024/03/22 09:39:56;;;;;;;29.10;10.63;;;;;;;8.16;100.00;101835.44;5091486;28;20028;-74
2024/03/22 09:42:25;;;;;;;27.70;10.32;;;;;;;8.17;100.00;101831.03;5091466;28;20047;-75
2024/03/22 09:44:50;;;;;;;29.45;11.00;;;;;;;8.18;100.00;101836.22;5091725;28;20119;-74
2024/03/22 09:47:16;;;;;;;27.65;10.48;;;;;;;8.18;100.00;101822.97;5090821;28;20117;-74
2024/03/22 09:49:46;;;;;;;30.58;10.48;;;;;;;8.15;100.00;101830.25;5091461;28;20032;-75
2024/03/22 09:52:13;;;;;;;30.48;10.55;;;;;;;8.20;100.00;101826.34;5091537;28;20028;-75
2024/03/22 09:54:38;;;;;;;27.50;10.57;;;;;;;8.28;100.00;101820.53;5091422;28;20042;-75
2024/03/22 09:57:04;;;;;;;25.17;9.88;;;;;;;8.33;100.00;101837.03;5073219;28;20036;-75
2024/03/22 09:59:29;;;;;;;21.48;9.43;;;;;;;8.38;100.00;101824.31;5072992;28;20038;-75
2024/03/22 10:01:58;;;;;;;26.90;11.18;;;;;;;8.43;100.00;101826.66;5091634;28;20081;-75
2024/03/22 10:04:23;;;;;;;27.52;10.18;;;;;;;8.46;100.00;101821.16;5091201;28;20054;-75
2024/03/22 10:06:49;;;;;;;28.70;10.63;;;;;;;8.50;100.00;101830.63;5091540;28;20036;-75
2024/03/22 10:09:15;;;;;;;26.13;10.10;;;;;;;8.50;100.00;101819.19;5072915;28;20149;-75
2024/03/22 10:11:41;;;;;;;32.95;10.13;;;;;;;8.55;100.00;101825.03;5091408;28;20028;-75
2024/03/22 10:14:06;;;;;;;28.23;11.48;;;;;;;8.50;100.00;101827.16;5091318;28;20052;-75
2024/03/22 10:16:35;;;;;;;26.52;10.02;;;;;;;8.40;100.00;101825.03;5091040;28;20024;-76
2024/03/22 10:19:00;;;;;;;26.77;11.07;;;;;;;8.40;100.00;101824.19;5091064;28;20127;-76
2024/03/22 10:21:27;;;;;;;21.92;9.75;;;;;;;8.41;100.00;101832.06;5091112;28;20069;-75
2024/03/22 10:23:53;;;;;;;26.65;10.00;;;;;;;8.37;100.00;101830.56;5090855;28;20473;-75
2024/03/22 10:26:18;;;;;;;25.90;11.00;;;;;;;8.41;100.00;101824.09;5090835;28;20165;-75
2024/03/22 10:28:45;;;;;;;20.08;10.18;;;;;;;8.40;100.00;101829.50;5091206;28;20050;-75
2024/03/22 10:31:12;;;;;;;25.20;10.38;;;;;;;8.38;100.00;101834.06;5072537;28;20468;-75
2024/03/22 10:33:40;;;;;;;26.83;10.20;;;;;;;8.37;100.00;101830.56;5090678;28;20024;-75
2024/03/22 10:36:06;;;;;;;18.85;10.52;;;;;;;8.37;100.00;101835.00;5091022;28;20081;-75
2024/03/22 10:38:32;;;;;;;26.42;10.88;;;;;;;8.37;100.00;101833.19;5091013;28;20036;-75
2024/03/22 10:41:00;;;;;;;25.08;10.82;;;;;;;8.37;100.00;101827.06;5090903;28;20023;-75
2024/03/22 10:43:25;;;;;;;25.80;10.52;;;;;;;8.33;100.00;101826.41;5072560;28;20127;-72
2024/03/22 10:45:54;;;;;;;24.85;10.88;;;;;;;8.32;100.00;101829.19;5090557;28;20050;-76
2024/03/22 10:48:21;;;;;;;20.83;10.45;;;;;;;8.32;100.00;101835.31;5090672;28;20089;-75
2024/03/22 10:50:47;;;;;;;25.70;11.60;;;;;;;8.39;100.00;101833.09;5072263;28;20031;-76
2024/03/22 10:53:20;;;;;;;27.90;11.52;;;;;;;8.44;100.00;101833.69;5090669;28;20035;-75
2024/03/22 10:55:48;;;;;;;27.50;12.57;;;;;;;8.50;100.00;101835.09;5090847;28;20046;-74
2024/03/22 10:58:20;;;;;;;28.08;13.23;;;;;;;8.57;100.00;101842.53;5090548;28;20375;-75
2024/03/22 11:00:51;;;;;;;25.02;13.15;;;;;;;8.67;100.00;101837.47;5094839;28;20103;-75
2024/03/22 11:03:20;;;;;;;34.40;13.60;;;;;;;8.78;100.00;101832.31;5095095;28;20028;-75
2024/03/22 11:05:51;;;;;;;33.00;12.85;;;;;;;8.98;100.00;101822.97;5094848;28;20735;-75
2024/03/22 11:08:23;;;;;;;;;;;;;;;9.11;100.00;101827.47;5094974;28;20085;-75